Time;durP1;ratioP1;P1;durP2;ratioP2;P2;SDS_P1;SDS_P2;PMS_P1;PMS_P2;Temp;Humidity;BMP_temperature;BMP_pressure;BME280_temperature;BME280_humidity;BME280_pressure;Samples;Min_cycle;Max_cycle;Signal;HPM_P1;HPM_P2
2022/10/27 00:01:17;;;;;;;38.83;25.98;;;19.30;65.10;;;;;;5113823;28;20272;-70
2022/10/27 00:03:43;;;;;;;35.08;24.80;;;19.30;65.00;;;;;;5112434;28;20197;-70
2022/10/27 00:06:10;;;;;;;36.13;25.15;;;19.30;64.90;;;;;;5112779;28;20209;-70
2022/10/27 00:08:38;;;;;;;34.85;23.27;;;19.30;64.90;;;;;;5112471;28;20300;-70
2022/10/27 00:11:06;;;;;;;39.05;25.67;;;19.30;65.00;;;;;;5112620;28;20583;-69
2022/10/27 00:13:34;;;;;;;34.25;23.60;;;19.30;65.00;;;;;;5112901;28;20258;-70
2022/10/27 00:16:02;;;;;;;32.78;22.63;;;19.20;65.10;;;;;;5117668;28;20189;-70
2022/10/27 00:18:29;;;;;;;31.30;21.60;;;19.20;64.80;;;;;;5116581;28;20646;-70
2022/10/27 00:21:00;;;;;;;33.78;21.92;;;19.30;64.60;;;;;;5116234;28;20209;-70
2022/10/27 00:23:27;;;;;;;33.50;23.52;;;19.20;64.70;;;;;;5117265;28;20201;-70
2022/10/27 00:25:54;;;;;;;32.60;22.77;;;19.20;64.70;;;;;;5117382;28;20209;-70
2022/10/27 00:28:21;;;;;;;32.60;22.90;;;19.20;64.60;;;;;;5117421;28;20204;-69
2022/10/27 00:30:56;;;;;;;31.95;22.27;;;19.20;64.70;;;;;;5116195;28;20266;-70
2022/10/27 00:33:23;;;;;;;27.83;19.70;;;19.20;65.50;;;;;;5115993;28;20276;-70
2022/10/27 00:35:51;;;;;;;29.00;19.25;;;19.20;64.50;;;;;;5117237;28;20197;-70
2022/10/27 00:38:18;;;;;;;32.15;19.67;;;19.20;64.60;;;;;;5117153;28;20210;-70
2022/10/27 00:40:45;;;;;;;31.48;21.13;;;19.20;64.60;;;;;;5115846;28;20292;-70
2022/10/27 00:43:26;;;;;;;30.35;19.83;;;19.20;64.70;;;;;;5116671;28;20653;-70
2022/10/27 00:45:54;;;;;;;26.08;18.17;;;19.20;64.40;;;;;;5116956;28;20572;-70
2022/10/27 00:48:21;;;;;;;27.27;18.90;;;19.20;64.20;;;;;;5116795;28;20224;-70
2022/10/27 00:50:49;;;;;;;25.08;17.60;;;19.20;63.90;;;;;;5115992;28;20258;-70
2022/10/27 00:53:15;;;;;;;24.83;16.85;;;19.20;64.00;;;;;;5115686;28;20370;-70
2022/10/27 00:55:43;;;;;;;26.33;17.02;;;19.20;63.90;;;;;;5116258;28;20603;-70
2022/10/27 00:58:12;;;;;;;26.00;17.15;;;19.10;63.80;;;;;;5116163;28;20217;-70
2022/10/27 01:00:40;;;;;;;25.33;16.80;;;19.20;63.90;;;;;;5116226;28;20301;-70
2022/10/27 01:03:09;;;;;;;25.02;17.67;;;19.20;63.30;;;;;;5115959;28;20203;-70
2022/10/27 01:05:36;;;;;;;23.58;15.10;;;19.20;63.80;;;;;;5116056;28;20223;-70
2022/10/27 01:08:04;;;;;;;23.10;16.20;;;19.20;63.30;;;;;;5121044;28;20219;-70
2022/10/27 01:10:31;;;;;;;22.75;15.63;;;19.20;63.40;;;;;;5116422;28;20216;-70
2022/10/27 01:12:59;;;;;;;22.80;15.45;;;19.10;63.20;;;;;;5117514;28;20686;-70
2022/10/27 01:15:29;;;;;;;23.63;15.25;;;19.10;63.30;;;;;;5115890;28;20198;-70
2022/10/27 01:17:58;;;;;;;18.92;14.55;;;19.10;63.20;;;;;;5098609;28;20221;-70
2022/10/27 01:20:48;;;;;;;21.48;14.40;;;19.10;63.30;;;;;;5115187;28;20239;-70
2022/10/27 01:23:20;;;;;;;22.25;13.90;;;19.10;63.20;;;;;;5112241;28;20202;-70
2022/10/27 01:26:10;;;;;;;19.60;13.77;;;19.10;63.20;;;;;;5115772;28;20189;-70
2022/10/27 01:28:54;;;;;;;21.58;14.50;;;19.10;63.20;;;;;;5115127;28;20213;-70
2022/10/27 01:31:23;;;;;;;17.67;12.27;;;19.10;63.30;;;;;;5115612;28;20201;-70
2022/10/27 01:33:51;;;;;;;18.52;12.75;;;19.10;63.20;;;;;;5115013;28;20240;-70
2022/10/27 01:36:22;;;;;;;18.80;13.05;;;19.10;63.20;;;;;;5114931;28;20598;-70
2022/10/27 01:38:52;;;;;;;17.80;12.43;;;19.10;63.20;;;;;;5114567;28;20278;-70
2022/10/27 01:41:22;;;;;;;18.75;12.43;;;19.00;63.10;;;;;;5116136;28;20186;-70
2022/10/27 01:43:50;;;;;;;18.95;13.27;;;19.10;63.20;;;;;;5114730;28;20204;-70
2022/10/27 01:46:17;;;;;;;20.25;12.65;;;19.00;63.20;;;;;;5115908;28;20246;-70
2022/10/27 01:48:45;;;;;;;19.40;12.23;;;19.10;63.40;;;;;;5114317;28;20213;-70
2022/10/27 01:51:12;;;;;;;17.92;12.40;;;19.00;63.10;;;;;;5114330;28;20192;-70
2022/10/27 01:53:41;;;;;;;16.42;11.45;;;19.10;63.20;;;;;;5114376;28;20228;-70
2022/10/27 01:56:17;;;;;;;18.77;12.07;;;19.00;63.10;;;;;;5115574;28;20231;-70
2022/10/27 01:58:54;;;;;;;18.27;11.57;;;19.00;63.10;;;;;;5114584;28;20217;-70
2022/10/27 02:01:28;;;;;;;18.20;11.88;;;19.00;63.10;;;;;;5115591;28;20218;-70
2022/10/27 02:03:59;;;;;;;16.60;10.93;;;19.00;63.10;;;;;;5114921;28;20243;-70
2022/10/27 02:06:30;;;;;;;17.63;11.65;;;19.00;63.20;;;;;;5113870;28;20675;-70
2022/10/27 02:08:59;;;;;;;17.52;11.13;;;19.00;63.10;;;;;;5114477;28;20235;-70
2022/10/27 02:11:26;;;;;;;16.23;11.43;;;18.90;63.10;;;;;;5115146;28;20197;-70
2022/10/27 02:13:54;;;;;;;16.40;10.80;;;18.90;63.10;;;;;;5115108;28;20248;-70
2022/10/27 02:16:23;;;;;;;15.50;10.18;;;18.90;63.00;;;;;;5115099;28;20189;-70
2022/10/27 02:18:51;;;;;;;15.27;9.88;;;18.90;63.20;;;;;;5113717;28;20213;-70
2022/10/27 02:21:19;;;;;;;14.25;9.48;;;18.90;63.00;;;;;;5115355;28;20719;-70
2022/10/27 02:23:47;;;;;;;13.95;9.90;;;18.90;63.00;;;;;;5113808;28;20600;-70
2022/10/27 02:26:15;;;;;;;14.82;10.07;;;18.90;63.30;;;;;;5115211;28;20206;-70
2022/10/27 02:28:45;;;;;;;14.77;10.40;;;18.90;63.00;;;;;;5113675;28;20266;-70
2022/10/27 02:31:12;;;;;;;13.07;8.88;;;18.90;63.30;;;;;;5113786;28;20198;-70
2022/10/27 02:33:39;;;;;;;12.27;9.00;;;18.90;63.30;;;;;;5113604;28;20189;-70
2022/10/27 02:36:06;;;;;;;14.23;9.40;;;18.90;63.00;;;;;;5112789;28;20208;-70
2022/10/27 02:38:35;;;;;;;13.57;9.15;;;18.90;63.30;;;;;;5113792;28;20217;-70
2022/10/27 02:41:02;;;;;;;13.77;8.80;;;18.90;63.20;;;;;;5113794;28;20205;-70
2022/10/27 02:43:28;;;;;;;11.57;9.05;;;18.80;63.10;;;;;;5113942;28;20204;-70
2022/10/27 02:45:55;;;;;;;13.50;8.88;;;18.80;62.90;;;;;;5113415;28;20193;-70
2022/10/27 02:48:22;;;;;;;11.75;8.13;;;18.80;63.70;;;;;;5113620;28;20703;-70
2022/10/27 02:51:11;;;;;;;11.23;8.13;;;18.80;62.90;;;;;;5115289;28;20310;-70
2022/10/27 02:53:40;;;;;;;12.93;8.55;;;18.80;62.90;;;;;;5096680;28;20189;-70
2022/10/27 02:56:07;;;;;;;10.25;7.18;;;18.80;62.90;;;;;;5113908;28;20204;-70
2022/10/27 02:58:34;;;;;;;12.95;8.32;;;18.80;62.90;;;;;;5113711;28;20217;-70
2022/10/27 03:01:01;;;;;;;10.95;8.05;;;18.80;62.90;;;;;;5115183;28;20197;-70
2022/10/27 03:03:29;;;;;;;10.90;7.68;;;18.80;62.90;;;;;;5114473;28;20279;-70
2022/10/27 03:05:56;;;;;;;10.88;7.90;;;18.80;62.50;;;;;;5114013;28;20190;-70
2022/10/27 03:08:23;;;;;;;10.77;7.47;;;18.80;62.80;;;;;;5097200;28;20316;-70
2022/10/27 03:10:51;;;;;;;10.38;7.90;;;18.80;62.50;;;;;;5114181;28;20193;-70
2022/10/27 03:13:18;;;;;;;14.20;8.18;;;18.70;62.50;;;;;;5113378;28;20201;-70
2022/10/27 03:15:45;;;;;;;11.70;7.78;;;18.70;62.50;;;;;;5113248;28;20277;-70
2022/10/27 03:18:12;;;;;;;11.00;6.95;;;18.70;62.80;;;;;;5113766;28;20267;-70
2022/10/27 03:20:40;;;;;;;10.05;7.05;;;18.80;62.60;;;;;;5113737;28;20219;-70
2022/10/27 03:23:07;;;;;;;10.50;6.97;;;18.80;62.90;;;;;;5115179;28;20210;-70
2022/10/27 03:25:36;;;;;;;10.40;6.85;;;18.80;62.90;;;;;;5114841;28;20201;-70
2022/10/27 03:28:04;;;;;;;10.55;6.93;;;18.70;63.20;;;;;;5114838;28;20259;-70
2022/10/27 03:30:31;;;;;;;10.50;6.97;;;18.70;63.40;;;;;;5119034;28;20194;-70
2022/10/27 03:33:00;;;;;;;11.25;7.38;;;18.70;63.30;;;;;;5100597;28;20620;-70
2022/10/27 03:35:27;;;;;;;11.02;7.25;;;18.80;63.60;;;;;;5114739;28;20196;-70
2022/10/27 03:37:57;;;;;;;10.23;7.45;;;18.80;63.40;;;;;;5115791;28;20256;-70
2022/10/27 03:40:25;;;;;;;10.65;6.63;;;18.80;63.10;;;;;;5114844;28;20193;-70
2022/10/27 03:42:56;;;;;;;9.68;6.35;;;18.90;63.00;;;;;;5113232;28;20208;-70
2022/10/27 03:45:24;;;;;;;9.23;7.13;;;18.90;62.90;;;;;;5115182;28;20226;-70
2022/10/27 03:47:59;;;;;;;10.73;7.00;;;18.90;62.80;;;;;;5116419;28;20216;-70
2022/10/27 03:50:26;;;;;;;8.98;6.35;;;19.00;62.70;;;;;;5118531;28;20181;-70
2022/10/27 03:52:53;;;;;;;12.73;6.70;;;19.00;62.30;;;;;;5116861;28;20254;-70
2022/10/27 03:55:20;;;;;;;7.97;6.20;;;19.00;62.40;;;;;;5116850;28;20197;-70
2022/10/27 03:57:47;;;;;;;9.10;6.00;;;19.00;62.30;;;;;;5116844;28;20217;-70
2022/10/27 04:00:15;;;;;;;9.10;6.55;;;19.00;62.20;;;;;;5116871;28;20197;-70
2022/10/27 04:02:43;;;;;;;9.32;6.15;;;19.00;62.40;;;;;;5116479;28;20198;-70
2022/10/27 04:05:10;;;;;;;7.93;5.95;;;19.00;62.20;;;;;;5116658;28;20197;-70
2022/10/27 04:07:37;;;;;;;8.77;5.93;;;19.00;62.10;;;;;;5100011;28;20225;-70
2022/10/27 04:10:05;;;;;;;9.45;6.03;;;19.00;62.10;;;;;;5116479;28;20201;-70
2022/10/27 04:12:32;;;;;;;8.30;5.70;;;19.00;62.00;;;;;;5116412;28;20246;-70
2022/10/27 04:14:58;;;;;;;8.77;6.13;;;18.90;61.90;;;;;;5116391;28;20193;-70
2022/10/27 04:17:26;;;;;;;9.55;5.80;;;19.00;61.90;;;;;;5116405;28;20250;-70
2022/10/27 04:19:54;;;;;;;7.72;5.70;;;18.90;61.80;;;;;;5116248;28;20269;-70
2022/10/27 04:22:21;;;;;;;10.00;5.75;;;18.90;61.90;;;;;;5116423;28;20197;-70
2022/10/27 04:24:48;;;;;;;7.32;5.13;;;18.90;61.70;;;;;;5116220;28;20220;-70
2022/10/27 04:27:15;;;;;;;6.90;5.63;;;18.90;61.70;;;;;;5116066;28;20671;-70
2022/10/27 04:29:42;;;;;;;11.48;6.22;;;18.90;61.80;;;;;;5116414;28;20198;-70
2022/10/27 04:32:11;;;;;;;11.00;5.97;;;18.80;61.60;;;;;;5116280;28;20197;-69
2022/10/27 04:34:38;;;;;;;7.18;5.47;;;18.80;62.50;;;;;;5117142;28;20203;-70
2022/10/27 04:37:06;;;;;;;9.43;5.75;;;18.80;61.90;;;;;;5116218;28;20214;-70
2022/10/27 04:39:33;;;;;;;7.35;5.90;;;18.80;62.10;;;;;;5117114;28;20192;-70
2022/10/27 04:42:01;;;;;;;8.25;5.50;;;18.80;62.30;;;;;;5115761;28;20201;-70
2022/10/27 04:44:28;;;;;;;8.27;5.05;;;18.80;63.30;;;;;;5115564;28;20201;-70
2022/10/27 04:46:55;;;;;;;7.22;5.05;;;18.70;62.50;;;;;;5115453;28;20582;-71
2022/10/27 04:49:22;;;;;;;8.20;4.75;;;18.70;62.50;;;;;;5115647;28;20194;-71
2022/10/27 04:51:49;;;;;;;6.00;5.22;;;18.80;62.60;;;;;;5115652;28;20196;-71
2022/10/27 04:54:17;;;;;;;9.95;5.65;;;18.80;62.70;;;;;;5115287;28;20303;-71
2022/10/27 04:56:44;;;;;;;7.38;5.20;;;18.70;62.80;;;;;;5115294;28;20566;-71
2022/10/27 04:59:11;;;;;;;8.13;4.78;;;18.70;62.60;;;;;;5114959;28;20201;-71
2022/10/27 05:01:39;;;;;;;6.32;5.00;;;18.70;62.70;;;;;;5115091;28;20622;-71
2022/10/27 05:04:06;;;;;;;8.75;5.40;;;18.70;62.70;;;;;;5116846;28;20189;-71
2022/10/27 05:06:33;;;;;;;7.40;4.65;;;18.80;62.90;;;;;;5115106;28;20566;-71
2022/10/27 05:09:00;;;;;;;6.97;4.50;;;18.70;62.80;;;;;;5115281;28;20237;-71
2022/10/27 05:11:29;;;;;;;5.60;4.45;;;18.70;62.70;;;;;;5115194;28;20590;-71
2022/10/27 05:13:56;;;;;;;6.32;4.85;;;18.70;62.70;;;;;;5115268;28;20550;-70
2022/10/27 05:16:23;;;;;;;7.00;5.00;;;18.70;62.80;;;;;;5115413;28;20193;-70
2022/10/27 05:18:50;;;;;;;7.20;4.40;;;18.70;62.80;;;;;;5115083;28;20225;-70
2022/10/27 05:21:17;;;;;;;7.50;4.60;;;18.70;62.80;;;;;;5098589;28;20197;-70
2022/10/27 05:23:44;;;;;;;6.28;4.45;;;18.70;62.80;;;;;;5115203;28;20204;-70
2022/10/27 05:26:11;;;;;;;7.10;4.55;;;18.60;62.60;;;;;;5114897;28;20221;-70
2022/10/27 05:28:42;;;;;;;6.82;4.65;;;18.70;62.80;;;;;;5115292;28;20239;-70
2022/10/27 05:31:09;;;;;;;7.82;4.68;;;18.60;62.60;;;;;;5114970;28;20196;-70
2022/10/27 05:33:36;;;;;;;5.15;4.65;;;18.60;62.70;;;;;;5115792;28;20253;-70
2022/10/27 05:36:04;;;;;;;5.85;4.20;;;18.60;62.70;;;;;;5114901;28;20606;-70
2022/10/27 05:38:30;;;;;;;5.45;4.57;;;18.60;62.70;;;;;;5114881;28;20262;-70
2022/10/27 05:40:58;;;;;;;6.30;4.13;;;18.60;62.70;;;;;;5115376;28;20388;-70
2022/10/27 05:43:25;;;;;;;6.30;4.30;;;18.60;62.70;;;;;;5115030;28;20211;-70
2022/10/27 05:45:54;;;;;;;5.10;4.13;;;18.60;61.90;;;;;;5115131;28;20587;-71
2022/10/27 05:48:21;;;;;;;4.80;4.30;;;18.50;61.90;;;;;;5114717;28;20232;-71
2022/10/27 05:50:52;;;;;;;5.90;4.38;;;18.50;61.80;;;;;;5114997;28;20197;-71
2022/10/27 05:53:19;;;;;;;6.88;4.07;;;18.60;61.80;;;;;;5114989;28;20659;-71
2022/10/27 05:55:46;;;;;;;5.72;4.15;;;18.50;61.60;;;;;;5115500;28;20197;-71
2022/10/27 05:58:13;;;;;;;6.28;4.20;;;18.50;61.60;;;;;;5114715;28;20220;-71
2022/10/27 06:00:40;;;;;;;5.55;3.85;;;18.50;61.60;;;;;;5116698;28;20190;-71
2022/10/27 06:03:16;;;;;;;5.03;4.13;;;18.50;61.50;;;;;;5115738;28;20193;-71
2022/10/27 06:05:43;;;;;;;4.65;3.83;;;18.50;61.40;;;;;;5115826;28;20181;-71
2022/10/27 06:08:10;;;;;;;4.80;3.92;;;18.50;61.60;;;;;;5116548;28;20255;-71
2022/10/27 06:10:37;;;;;;;5.30;4.00;;;18.50;61.60;;;;;;5115652;28;20597;-71
2022/10/27 06:13:05;;;;;;;5.05;3.72;;;18.50;61.40;;;;;;5115692;28;20197;-71
2022/10/27 06:15:32;;;;;;;4.22;3.60;;;18.50;61.30;;;;;;5114919;28;20223;-70
2022/10/27 06:17:59;;;;;;;7.43;3.83;;;18.50;61.60;;;;;;5114744;28;20232;-70
2022/10/27 06:20:28;;;;;;;4.07;3.53;;;18.50;61.50;;;;;;5114581;28;20193;-70
2022/10/27 06:22:54;;;;;;;5.45;3.92;;;18.60;61.30;;;;;;5115440;28;20203;-70
2022/10/27 06:25:22;;;;;;;7.45;4.07;;;18.60;61.20;;;;;;5114308;28;20682;-70
2022/10/27 06:27:49;;;;;;;3.70;3.30;;;18.60;61.40;;;;;;5114069;28;20221;-70
2022/10/27 06:30:16;;;;;;;4.35;3.88;;;18.50;61.00;;;;;;5114152;28;20209;-70
2022/10/27 06:32:43;;;;;;;5.57;3.88;;;18.60;60.90;;;;;;5113660;28;20197;-70
2022/10/27 06:35:10;;;;;;;3.95;3.53;;;18.60;60.90;;;;;;5114007;28;20201;-70
2022/10/27 06:37:39;;;;;;;5.55;3.92;;;18.60;60.90;;;;;;5113823;28;20284;-70
2022/10/27 06:40:07;;;;;;;4.47;3.75;;;18.60;61.00;;;;;;5113605;28;20258;-70
2022/10/27 06:42:35;;;;;;;6.25;3.95;;;18.60;61.00;;;;;;5113585;28;20288;-70
2022/10/27 06:45:02;;;;;;;4.97;3.97;;;18.60;61.00;;;;;;5113521;28;20231;-70
2022/10/27 06:47:29;;;;;;;5.57;3.63;;;18.60;60.90;;;;;;5113480;28;20213;-70
2022/10/27 06:49:56;;;;;;;4.53;3.70;;;18.60;60.80;;;;;;5113775;28;20193;-70
2022/10/27 06:52:23;;;;;;;4.07;3.50;;;18.60;60.80;;;;;;5113456;28;20280;-70
2022/10/27 06:54:51;;;;;;;4.22;3.70;;;18.70;60.80;;;;;;5113103;28;20202;-70
2022/10/27 06:57:19;;;;;;;6.05;4.07;;;18.70;60.70;;;;;;5113543;28;20304;-70
2022/10/27 06:59:46;;;;;;;4.82;3.60;;;18.70;60.50;;;;;;5113200;28;20198;-70
2022/10/27 07:02:13;;;;;;;4.78;4.10;;;18.70;60.80;;;;;;5114382;28;20250;-70
2022/10/27 07:04:40;;;;;;;4.78;3.90;;;18.70;60.40;;;;;;5113391;28;20194;-70
2022/10/27 07:07:08;;;;;;;4.18;3.78;;;18.70;60.50;;;;;;5113163;28;20270;-70
2022/10/27 07:09:34;;;;;;;5.28;3.60;;;18.80;60.60;;;;;;5113711;28;20193;-70
2022/10/27 07:12:05;;;;;;;3.97;3.55;;;18.80;60.40;;;;;;5113261;28;20247;-70
2022/10/27 07:14:32;;;;;;;4.05;3.30;;;18.80;60.70;;;;;;5113313;28;20201;-70
2022/10/27 07:16:59;;;;;;;4.20;3.40;;;18.70;59.80;;;;;;5113787;28;20235;-70
2022/10/27 07:19:27;;;;;;;3.88;3.30;;;18.80;60.30;;;;;;5112935;28;20198;-70
2022/10/27 07:21:54;;;;;;;4.28;3.65;;;18.80;60.50;;;;;;5112902;28;20197;-70
2022/10/27 07:24:21;;;;;;;3.95;3.30;;;18.90;60.50;;;;;;5113233;28;20197;-70
2022/10/27 07:26:48;;;;;;;4.45;3.75;;;19.00;60.40;;;;;;5113227;28;20189;-70
2022/10/27 07:29:16;;;;;;;3.95;3.50;;;19.00;60.10;;;;;;5114201;28;20205;-70
2022/10/27 07:31:44;;;;;;;3.53;3.22;;;19.10;59.90;;;;;;5113177;28;20190;-70
2022/10/27 07:34:12;;;;;;;4.18;3.20;;;19.10;59.70;;;;;;5114738;28;20247;-70
2022/10/27 07:36:39;;;;;;;3.88;3.28;;;19.20;59.80;;;;;;5114629;28;20240;-70
2022/10/27 07:39:06;;;;;;;3.90;3.50;;;19.20;59.90;;;;;;5113086;28;20204;-70
2022/10/27 07:41:33;;;;;;;3.15;2.90;;;19.30;59.90;;;;;;5113102;28;20292;-70
2022/10/27 07:44:01;;;;;;;5.35;3.30;;;19.40;59.80;;;;;;5113712;28;20690;-70
2022/10/27 07:46:30;;;;;;;4.43;3.40;;;19.40;59.50;;;;;;5113130;28;20236;-70
2022/10/27 07:48:57;;;;;;;4.13;3.40;;;19.50;59.30;;;;;;5113225;28;20213;-70
2022/10/27 07:51:24;;;;;;;3.45;2.92;;;19.60;59.20;;;;;;5112873;28;20275;-70
2022/10/27 07:53:51;;;;;;;3.30;3.00;;;19.70;59.10;;;;;;5112960;28;20205;-70
2022/10/27 07:56:18;;;;;;;4.22;3.10;;;19.80;59.00;;;;;;5114287;28;20181;-70
2022/10/27 07:58:48;;;;;;;3.00;2.70;;;20.10;58.90;;;;;;5114471;28;20535;-70
2022/10/27 08:01:15;;;;;;;4.32;3.30;;;20.30;58.50;;;;;;5112914;28;20264;-70
2022/10/27 08:03:43;;;;;;;4.57;3.33;;;20.50;58.00;;;;;;5114122;28;20652;-70
2022/10/27 08:06:10;;;;;;;4.28;3.05;;;20.70;57.60;;;;;;5114477;28;20193;-70
2022/10/27 08:08:37;;;;;;;3.22;2.92;;;20.90;57.20;;;;;;5113024;28;20213;-70
2022/10/27 08:11:04;;;;;;;3.63;3.00;;;21.10;56.90;;;;;;5113206;28;20254;-70
2022/10/27 08:13:31;;;;;;;3.78;2.75;;;21.30;56.50;;;;;;5113236;28;20229;-70
2022/10/27 08:15:59;;;;;;;4.05;2.80;;;21.40;56.20;;;;;;5113099;28;20218;-70
2022/10/27 08:18:26;;;;;;;3.28;2.95;;;21.50;55.80;;;;;;5113052;28;20252;-70
2022/10/27 08:20:54;;;;;;;3.40;3.10;;;21.60;55.80;;;;;;5113609;28;20262;-71
2022/10/27 08:23:24;;;;;;;4.07;3.00;;;21.70;55.50;;;;;;5113388;28;20616;-71
2022/10/27 08:25:51;;;;;;;3.33;3.03;;;21.80;56.00;;;;;;5114521;28;20247;-71
2022/10/27 08:28:18;;;;;;;3.25;2.63;;;21.90;55.20;;;;;;5115347;28;20220;-71
2022/10/27 08:30:44;;;;;;;4.63;2.92;;;22.00;55.20;;;;;;5116181;28;20220;-71
2022/10/27 08:33:12;;;;;;;3.67;2.90;;;22.00;55.50;;;;;;5114723;28;20198;-71
2022/10/27 08:35:40;;;;;;;3.28;2.90;;;22.00;55.10;;;;;;5115767;28;20216;-71
2022/10/27 08:38:10;;;;;;;3.28;2.95;;;22.10;54.80;;;;;;5117084;28;20219;-71
2022/10/27 08:40:43;;;;;;;5.70;2.83;;;22.20;54.70;;;;;;5118280;28;20197;-72
2022/10/27 08:43:48;;;;;;;2.85;2.63;;;22.30;54.50;;;;;;5119858;28;20255;-71
2022/10/27 08:46:19;;;;;;;3.47;2.75;;;22.30;54.30;;;;;;5117257;28;20242;-71
2022/10/27 08:48:48;;;;;;;2.70;2.50;;;22.30;54.00;;;;;;5116364;28;20750;-71
2022/10/27 08:51:17;;;;;;;2.88;2.60;;;22.50;53.90;;;;;;5117135;28;20205;-71
2022/10/27 08:53:46;;;;;;;3.20;2.70;;;22.50;53.60;;;;;;5117155;28;20255;-71
2022/10/27 08:56:14;;;;;;;2.80;2.55;;;22.60;53.50;;;;;;5116457;28;20651;-71
2022/10/27 08:58:42;;;;;;;3.10;2.80;;;22.60;53.30;;;;;;5116330;28;20708;-71
2022/10/27 09:01:20;;;;;;;3.30;3.00;;;22.70;53.30;;;;;;5115851;28;20194;-71
2022/10/27 09:04:17;;;;;;;3.33;2.88;;;22.70;53.20;;;;;;5116016;28;20203;-71
2022/10/27 09:06:51;;;;;;;2.88;2.67;;;22.80;53.10;;;;;;5071114;28;20198;-71
2022/10/27 09:09:22;;;;;;;2.92;2.63;;;22.80;52.90;;;;;;5115366;28;20247;-71
2022/10/27 09:11:52;;;;;;;3.45;2.80;;;22.90;52.80;;;;;;5115771;28;20190;-71
2022/10/27 09:14:26;;;;;;;2.63;2.42;;;22.90;52.50;;;;;;5115512;28;20190;-71
2022/10/27 09:16:55;;;;;;;2.75;2.47;;;22.90;52.50;;;;;;5115664;28;20204;-71
2022/10/27 09:19:24;;;;;;;3.20;2.72;;;23.00;52.60;;;;;;5115617;28;20197;-71
2022/10/27 09:21:51;;;;;;;3.15;2.67;;;23.00;52.60;;;;;;5115262;28;20230;-71
2022/10/27 09:24:21;;;;;;;3.10;2.80;;;23.00;52.50;;;;;;5115070;28;20242;-71
2022/10/27 09:26:48;;;;;;;3.35;2.75;;;23.00;52.40;;;;;;5116396;28;20186;-71
2022/10/27 09:31:58;;;;;;;2.97;2.70;;;23.10;52.30;;;;;;5143133;22;20236;-63
2022/10/27 09:34:27;;;;;;;2.70;2.45;;;23.10;52.30;;;;;;5114639;28;20301;-64
2022/10/27 09:36:54;;;;;;;3.70;3.00;;;23.10;52.20;;;;;;5115872;28;20189;-64
2022/10/27 09:39:23;;;;;;;3.08;2.72;;;23.10;52.10;;;;;;5115934;28;20205;-64
2022/10/27 09:41:50;;;;;;;3.13;2.83;;;23.10;52.10;;;;;;5114551;28;20193;-64
2022/10/27 09:44:19;;;;;;;3.25;2.90;;;23.10;52.10;;;;;;5115564;28;20232;-64
2022/10/27 09:46:50;;;;;;;4.20;2.92;;;23.10;52.00;;;;;;5115843;28;20196;-64
2022/10/27 09:49:17;;;;;;;3.65;2.85;;;23.20;52.10;;;;;;5115749;28;20217;-63
2022/10/27 09:51:46;;;;;;;2.90;2.60;;;23.20;52.00;;;;;;5114115;28;20623;-64
2022/10/27 09:57:07;;;;;;;2.85;2.65;;;23.20;52.00;;;;;;5111864;27;21063;-53
2022/10/27 09:59:35;;;;;;;2.70;2.50;;;23.20;52.00;;;;;;5110926;28;20292;-54
2022/10/27 10:02:04;;;;;;;2.80;2.60;;;23.20;52.00;;;;;;5120680;22;20300;-69
2022/10/27 10:04:32;;;;;;;2.60;2.40;;;23.20;52.00;;;;;;5050218;28;20246;-69
2022/10/27 10:07:01;;;;;;;2.70;2.50;;;23.20;52.00;;;;;;5049626;28;20694;-69
2022/10/27 10:09:29;;;;;;;2.80;2.60;;;23.10;52.00;;;;;;5049515;28;20543;-69
2022/10/27 10:12:20;;;;;;;3.22;2.78;;;23.10;52.00;;;;;;5049496;28;20199;-69
2022/10/27 10:14:47;;;;;;;2.70;2.50;;;23.10;52.10;;;;;;5050971;28;20198;-69
2022/10/27 10:17:23;;;;;;;2.67;2.47;;;23.10;52.20;;;;;;5049254;28;20226;-69
2022/10/27 10:19:50;;;;;;;3.05;2.72;;;23.10;52.30;;;;;;5049276;28;20195;-69
2022/10/27 10:22:21;;;;;;;2.70;2.50;;;23.00;52.30;;;;;;5063751;22;20227;-69
2022/10/27 10:24:48;;;;;;;3.58;2.80;;;22.90;52.50;;;;;;5049594;28;20250;-69
2022/10/27 10:27:24;;;;;;;2.88;2.42;;;22.80;52.40;;;;;;5049344;28;20219;-69
2022/10/27 10:29:51;;;;;;;3.03;2.70;;;22.80;52.70;;;;;;5064934;22;20314;-69
2022/10/27 10:32:19;;;;;;;3.00;2.70;;;22.70;52.70;;;;;;5049266;28;20199;-69
2022/10/27 10:34:47;;;;;;;2.80;2.60;;;22.70;52.90;;;;;;5049243;28;20646;-68
2022/10/27 10:37:31;;;;;;;2.90;2.60;;;22.60;53.00;;;;;;5050750;28;20207;-68
2022/10/27 10:40:32;;;;;;;3.03;2.72;;;22.60;53.20;;;;;;5032537;28;20294;-68
2022/10/27 10:43:14;;;;;;;3.35;2.53;;;22.60;53.20;;;;;;5049604;28;20199;-68
2022/10/27 10:45:41;;;;;;;2.85;2.50;;;22.50;53.30;;;;;;5033129;28;20593;-68
2022/10/27 10:48:28;;;;;;;2.95;2.47;;;22.50;53.40;;;;;;5049037;28;20230;-68
2022/10/27 10:50:55;;;;;;;2.78;2.53;;;22.50;53.50;;;;;;5048953;28;20249;-69
2022/10/27 10:53:25;;;;;;;2.40;2.20;;;22.40;53.60;;;;;;5048910;28;20572;-69
2022/10/27 10:55:53;;;;;;;2.85;2.60;;;22.40;53.60;;;;;;5048937;28;20219;-69
2022/10/27 10:58:21;;;;;;;2.90;2.70;;;22.40;53.60;;;;;;5049051;28;20620;-69
2022/10/27 11:00:53;;;;;;;2.83;2.50;;;22.40;53.80;;;;;;5049006;28;20206;-69
2022/10/27 11:03:20;;;;;;;2.78;2.38;;;22.30;53.90;;;;;;5048978;28;20569;-69
2022/10/27 11:05:52;;;;;;;2.90;2.40;;;22.30;54.10;;;;;;5049325;28;20218;-69
2022/10/27 11:08:21;;;;;;;3.08;2.60;;;22.30;54.30;;;;;;5036551;28;20220;-69
2022/10/27 11:10:48;;;;;;;2.63;2.30;;;22.30;54.40;;;;;;5037565;28;20195;-69
2022/10/27 11:13:16;;;;;;;2.90;2.58;;;22.30;54.40;;;;;;5036032;28;20219;-69
2022/10/27 11:15:47;;;;;;;2.88;2.47;;;22.30;54.50;;;;;;5036132;28;20270;-69
2022/10/27 11:18:16;;;;;;;2.85;2.60;;;22.30;54.50;;;;;;5038034;28;20560;-69
2022/10/27 11:20:44;;;;;;;2.92;2.50;;;22.30;54.60;;;;;;5035763;28;20199;-69
2022/10/27 11:23:15;;;;;;;2.60;2.40;;;22.30;54.60;;;;;;5035391;28;20300;-69
2022/10/27 11:25:42;;;;;;;4.75;2.90;;;22.30;55.20;;;;;;5035983;28;20192;-69
2022/10/27 11:28:15;;;;;;;2.63;2.42;;;22.30;54.70;;;;;;5035681;28;20270;-69
2022/10/27 11:30:45;;;;;;;3.45;2.60;;;22.30;54.80;;;;;;5035016;28;20283;-69
2022/10/27 11:33:17;;;;;;;2.78;2.55;;;22.30;54.90;;;;;;5035773;28;20196;-69
2022/10/27 11:35:48;;;;;;;2.67;2.35;;;22.30;54.80;;;;;;5035676;28;20609;-69
2022/10/27 11:38:19;;;;;;;2.83;2.58;;;22.30;54.80;;;;;;5034896;28;20694;-69
2022/10/27 11:40:49;;;;;;;3.35;2.47;;;22.30;54.90;;;;;;5018122;28;20227;-69
2022/10/27 11:43:18;;;;;;;2.92;2.63;;;22.40;54.90;;;;;;5034849;28;20180;-69
2022/10/27 11:45:50;;;;;;;3.20;2.58;;;22.40;54.90;;;;;;5034683;28;20647;-69
2022/10/27 11:48:19;;;;;;;2.60;2.40;;;22.40;54.90;;;;;;5034654;28;20224;-69
2022/10/27 11:50:48;;;;;;;2.58;2.38;;;22.40;54.90;;;;;;5034957;28;20651;-69
2022/10/27 11:53:15;;;;;;;2.72;2.28;;;22.40;54.80;;;;;;5035026;28;20204;-69
2022/10/27 11:55:53;;;;;;;2.70;2.50;;;22.50;54.90;;;;;;5034752;28;20231;-69
2022/10/27 11:58:23;;;;;;;2.92;2.10;;;22.50;54.90;;;;;;5034504;28;20223;-69
2022/10/27 12:00:54;;;;;;;2.92;2.63;;;22.50;54.90;;;;;;5034576;28;20232;-68
2022/10/27 12:03:35;;;;;;;2.22;2.03;;;22.50;54.90;;;;;;5034905;28;20180;-68
2022/10/27 12:06:05;;;;;;;2.83;2.38;;;22.50;54.90;;;;;;5035421;28;20188;-68
2022/10/27 12:08:37;;;;;;;2.72;2.33;;;22.50;54.90;;;;;;5034452;28;20227;-68
2022/10/27 12:11:31;;;;;;;2.33;2.13;;;22.50;54.90;;;;;;5034259;28;20207;-68
2022/10/27 12:14:02;;;;;;;2.30;2.10;;;22.60;54.90;;;;;;5034568;28;20195;-68
2022/10/27 12:16:34;;;;;;;2.72;2.28;;;22.60;55.00;;;;;;5035764;28;20287;-68
2022/10/27 12:19:02;;;;;;;2.35;2.15;;;22.60;54.90;;;;;;5033462;28;20312;-68
2022/10/27 12:21:32;;;;;;;2.45;2.20;;;22.60;55.00;;;;;;5017977;28;20212;-69
2022/10/27 12:24:01;;;;;;;2.90;2.17;;;22.60;55.00;;;;;;5034322;28;20254;-69
2022/10/27 12:26:30;;;;;;;2.63;2.42;;;22.60;55.00;;;;;;5034354;28;20610;-69
2022/10/27 12:28:57;;;;;;;2.65;2.42;;;22.60;55.00;;;;;;5034058;28;20228;-69
2022/10/27 12:31:25;;;;;;;2.63;2.40;;;22.60;55.20;;;;;;5034555;28;20204;-69
2022/10/27 12:33:56;;;;;;;2.38;2.15;;;22.60;55.10;;;;;;5034075;28;20570;-69
2022/10/27 12:36:25;;;;;;;2.30;2.10;;;22.60;55.20;;;;;;5034744;28;20212;-69
2022/10/27 12:38:55;;;;;;;2.40;2.20;;;22.60;55.20;;;;;;5034393;28;20617;-69
2022/10/27 12:41:28;;;;;;;2.38;2.17;;;22.60;55.30;;;;;;5034038;28;20196;-69
2022/10/27 12:43:58;;;;;;;2.33;2.13;;;22.50;55.20;;;;;;5035386;28;20185;-69
2022/10/27 12:46:32;;;;;;;2.67;2.38;;;22.60;55.40;;;;;;5034214;28;20572;-69
2022/10/27 12:49:06;;;;;;;2.33;2.15;;;22.50;55.40;;;;;;5033774;28;20216;-69
2022/10/27 12:51:36;;;;;;;2.55;2.17;;;22.60;55.40;;;;;;5035359;28;20187;-69
2022/10/27 12:54:11;;;;;;;2.15;1.95;;;22.50;55.40;;;;;;5035082;28;20192;-69
2022/10/27 12:56:41;;;;;;;2.45;2.20;;;22.50;55.40;;;;;;5034282;28;20218;-69
2022/10/27 12:59:14;;;;;;;2.35;2.15;;;22.50;55.50;;;;;;5034004;28;20196;-69